<?xml version="1.0" encoding="UTF-8" standalone="no" ?>
<gpx xmlns="http://www.topografix.com/GPX/1/1" xmlns:xsi="http://www.w3.org/2001/XMLSchema-instance" xsi:schemaLocation="http://www.topografix.com/GPX/1/1 http://www.topografix.com/GPX/1/1/gpx.xsd" version="1.1" creator="VisuGPX - https://www.visugpx.com">
  <metadata>
    <name>course vercors vtt chatellard</name>
    <desc><![CDATA[parcour prévisionnel de la course du club le 19 septembre]]></desc>
  </metadata>
  <trk>
    <name><![CDATA[Méaudre Cyclisme]]></name>
    <trkseg>
      <trkpt lat="45.12739" lon="5.5205">
        <ele>1002.7</ele>
        <time>2015-06-21T10:43:09.000Z</time>
      </trkpt>
      <trkpt lat="45.12733" lon="5.52047">
        <ele>1003</ele>
        <time>2015-06-21T10:43:13.000Z</time>
      </trkpt>
      <trkpt lat="45.12731" lon="5.52046">
        <ele>1003.1</ele>
        <time>2015-06-21T10:43:14.000Z</time>
      </trkpt>
      <trkpt lat="45.1273" lon="5.52045">
        <ele>1003.2</ele>
        <time>2015-06-21T10:43:15.000Z</time>
      </trkpt>
      <trkpt lat="45.12728" lon="5.52043">
        <ele>1003.2</ele>
        <time>2015-06-21T10:43:16.000Z</time>
      </trkpt>
      <trkpt lat="45.12727" lon="5.52042">
        <ele>1003.3</ele>
        <time>2015-06-21T10:43:17.000Z</time>
      </trkpt>
      <trkpt lat="45.12724" lon="5.52041">
        <ele>1003.3</ele>
        <time>2015-06-21T10:43:18.000Z</time>
      </trkpt>
      <trkpt lat="45.12722" lon="5.52039">
        <ele>1003.4</ele>
        <time>2015-06-21T10:43:19.000Z</time>
      </trkpt>
      <trkpt lat="45.1272" lon="5.52037">
        <ele>1003.6</ele>
        <time>2015-06-21T10:43:20.000Z</time>
      </trkpt>
      <trkpt lat="45.12715" lon="5.52034">
        <ele>1003.8</ele>
        <time>2015-06-21T10:43:22.000Z</time>
      </trkpt>
      <trkpt lat="45.12699" lon="5.52026">
        <ele>1004.7</ele>
        <time>2015-06-21T10:43:29.000Z</time>
      </trkpt>
      <trkpt lat="45.12682" lon="5.52018">
        <ele>1005.9</ele>
        <time>2015-06-21T10:43:36.000Z</time>
      </trkpt>
      <trkpt lat="45.12678" lon="5.52015">
        <ele>1006.2</ele>
        <time>2015-06-21T10:43:38.000Z</time>
      </trkpt>
      <trkpt lat="45.12675" lon="5.52014">
        <ele>1006.4</ele>
        <time>2015-06-21T10:43:39.000Z</time>
      </trkpt>
      <trkpt lat="45.12673" lon="5.52013">
        <ele>1006.6</ele>
        <time>2015-06-21T10:43:40.000Z</time>
      </trkpt>
      <trkpt lat="45.12671" lon="5.52012">
        <ele>1006.7</ele>
        <time>2015-06-21T10:43:41.000Z</time>
      </trkpt>
      <trkpt lat="45.12669" lon="5.52011">
        <ele>1006.8</ele>
        <time>2015-06-21T10:43:42.000Z</time>
      </trkpt>
      <trkpt lat="45.12667" lon="5.5201">
        <ele>1007</ele>
        <time>2015-06-21T10:43:44.000Z</time>
      </trkpt>
      <trkpt lat="45.12667" lon="5.5201">
        <ele>1007</ele>
        <time>2015-06-21T10:43:45.000Z</time>
      </trkpt>
      <trkpt lat="45.12667" lon="5.52014">
        <ele>1006.9</ele>
        <time>2015-06-21T10:43:48.000Z</time>
      </trkpt>
      <trkpt lat="45.12673" lon="5.52015">
        <ele>1006.5</ele>
        <time>2015-06-21T10:43:52.000Z</time>
      </trkpt>
      <trkpt lat="45.12684" lon="5.52018">
        <ele>1005.7</ele>
        <time>2015-06-21T10:43:56.000Z</time>
      </trkpt>
      <trkpt lat="45.12691" lon="5.52021">
        <ele>1005.2</ele>
        <time>2015-06-21T10:43:58.000Z</time>
      </trkpt>
      <trkpt lat="45.12707" lon="5.52029">
        <ele>1004.2</ele>
        <time>2015-06-21T10:44:02.000Z</time>
      </trkpt>
      <trkpt lat="45.1274" lon="5.52048">
        <ele>1002.6</ele>
        <time>2015-06-21T10:44:09.000Z</time>
      </trkpt>
      <trkpt lat="45.12756" lon="5.52059">
        <ele>1001.9</ele>
        <time>2015-06-21T10:44:12.000Z</time>
      </trkpt>
      <trkpt lat="45.1277" lon="5.52073">
        <ele>1001.4</ele>
        <time>2015-06-21T10:44:15.000Z</time>
      </trkpt>
      <trkpt lat="45.12774" lon="5.52078">
        <ele>1001.2</ele>
        <time>2015-06-21T10:44:16.000Z</time>
      </trkpt>
      <trkpt lat="45.12778" lon="5.52084">
        <ele>1001</ele>
        <time>2015-06-21T10:44:17.000Z</time>
      </trkpt>
      <trkpt lat="45.12783" lon="5.52089">
        <ele>1000.7</ele>
        <time>2015-06-21T10:44:18.000Z</time>
      </trkpt>
      <trkpt lat="45.12787" lon="5.52095">
        <ele>1000.4</ele>
        <time>2015-06-21T10:44:19.000Z</time>
      </trkpt>
      <trkpt lat="45.12797" lon="5.52112">
        <ele>999.6</ele>
        <time>2015-06-21T10:44:22.000Z</time>
      </trkpt>
      <trkpt lat="45.12807" lon="5.52128">
        <ele>998.9</ele>
        <time>2015-06-21T10:44:25.000Z</time>
      </trkpt>
      <trkpt lat="45.12809" lon="5.52134">
        <ele>998.8</ele>
        <time>2015-06-21T10:44:26.000Z</time>
      </trkpt>
      <trkpt lat="45.12808" lon="5.52139">
        <ele>998.8</ele>
        <time>2015-06-21T10:44:27.000Z</time>
      </trkpt>
      <trkpt lat="45.12807" lon="5.52144">
        <ele>998.7</ele>
        <time>2015-06-21T10:44:28.000Z</time>
      </trkpt>
      <trkpt lat="45.12805" lon="5.52147">
        <ele>998.8</ele>
        <time>2015-06-21T10:44:29.000Z</time>
      </trkpt>
      <trkpt lat="45.12803" lon="5.52149">
        <ele>999</ele>
        <time>2015-06-21T10:44:30.000Z</time>
      </trkpt>
      <trkpt lat="45.12798" lon="5.52152">
        <ele>999.5</ele>
        <time>2015-06-21T10:44:32.000Z</time>
      </trkpt>
      <trkpt lat="45.12788" lon="5.52156">
        <ele>1000.7</ele>
        <time>2015-06-21T10:44:37.000Z</time>
      </trkpt>
      <trkpt lat="45.12787" lon="5.52158">
        <ele>1000.8</ele>
        <time>2015-06-21T10:44:38.000Z</time>
      </trkpt>
      <trkpt lat="45.12781" lon="5.52162">
        <ele>1001.5</ele>
        <time>2015-06-21T10:44:41.000Z</time>
      </trkpt>
      <trkpt lat="45.12766" lon="5.52171">
        <ele>1003.6</ele>
        <time>2015-06-21T10:44:48.000Z</time>
      </trkpt>
      <trkpt lat="45.12761" lon="5.52177">
        <ele>1004.2</ele>
        <time>2015-06-21T10:44:51.000Z</time>
      </trkpt>
      <trkpt lat="45.1276" lon="5.5218">
        <ele>1004.4</ele>
        <time>2015-06-21T10:44:52.000Z</time>
      </trkpt>
      <trkpt lat="45.12758" lon="5.52183">
        <ele>1004.6</ele>
        <time>2015-06-21T10:44:53.000Z</time>
      </trkpt>
      <trkpt lat="45.12757" lon="5.52186">
        <ele>1004.8</ele>
        <time>2015-06-21T10:44:54.000Z</time>
      </trkpt>
      <trkpt lat="45.12756" lon="5.52189">
        <ele>1004.9</ele>
        <time>2015-06-21T10:44:55.000Z</time>
      </trkpt>
      <trkpt lat="45.12753" lon="5.52208">
        <ele>1005.4</ele>
        <time>2015-06-21T10:45:01.000Z</time>
      </trkpt>
      <trkpt lat="45.12746" lon="5.5223">
        <ele>1006.4</ele>
        <time>2015-06-21T10:45:09.000Z</time>
      </trkpt>
      <trkpt lat="45.12745" lon="5.52233">
        <ele>1006.5</ele>
        <time>2015-06-21T10:45:10.000Z</time>
      </trkpt>
      <trkpt lat="45.12744" lon="5.52235">
        <ele>1006.7</ele>
        <time>2015-06-21T10:45:11.000Z</time>
      </trkpt>
      <trkpt lat="45.12742" lon="5.52237">
        <ele>1006.8</ele>
        <time>2015-06-21T10:45:12.000Z</time>
      </trkpt>
      <trkpt lat="45.12741" lon="5.52239">
        <ele>1007.1</ele>
        <time>2015-06-21T10:45:13.000Z</time>
      </trkpt>
      <trkpt lat="45.1274" lon="5.52241">
        <ele>1007.3</ele>
        <time>2015-06-21T10:45:14.000Z</time>
      </trkpt>
      <trkpt lat="45.12738" lon="5.52243">
        <ele>1007.4</ele>
        <time>2015-06-21T10:45:15.000Z</time>
      </trkpt>
      <trkpt lat="45.12733" lon="5.52255">
        <ele>1008</ele>
        <time>2015-06-21T10:45:21.000Z</time>
      </trkpt>
      <trkpt lat="45.12727" lon="5.52264">
        <ele>1008.3</ele>
        <time>2015-06-21T10:45:26.000Z</time>
      </trkpt>
      <trkpt lat="45.12726" lon="5.52267">
        <ele>1008.2</ele>
        <time>2015-06-21T10:45:27.000Z</time>
      </trkpt>
      <trkpt lat="45.12725" lon="5.5227">
        <ele>1008.2</ele>
        <time>2015-06-21T10:45:28.000Z</time>
      </trkpt>
      <trkpt lat="45.12724" lon="5.52273">
        <ele>1008.2</ele>
        <time>2015-06-21T10:45:29.000Z</time>
      </trkpt>
      <trkpt lat="45.12722" lon="5.52276">
        <ele>1008.2</ele>
        <time>2015-06-21T10:45:30.000Z</time>
      </trkpt>
      <trkpt lat="45.12717" lon="5.52285">
        <ele>1008.4</ele>
        <time>2015-06-21T10:45:34.000Z</time>
      </trkpt>
      <trkpt lat="45.12711" lon="5.52297">
        <ele>1008.5</ele>
        <time>2015-06-21T10:45:39.000Z</time>
      </trkpt>
      <trkpt lat="45.12709" lon="5.52299">
        <ele>1008.5</ele>
        <time>2015-06-21T10:45:40.000Z</time>
      </trkpt>
      <trkpt lat="45.12708" lon="5.52302">
        <ele>1008.5</ele>
        <time>2015-06-21T10:45:41.000Z</time>
      </trkpt>
      <trkpt lat="45.12707" lon="5.52304">
        <ele>1008.6</ele>
        <time>2015-06-21T10:45:42.000Z</time>
      </trkpt>
      <trkpt lat="45.12705" lon="5.52306">
        <ele>1008.7</ele>
        <time>2015-06-21T10:45:43.000Z</time>
      </trkpt>
      <trkpt lat="45.12695" lon="5.52315">
        <ele>1009.9</ele>
        <time>2015-06-21T10:45:49.000Z</time>
      </trkpt>
      <trkpt lat="45.1269" lon="5.5232">
        <ele>1010.4</ele>
        <time>2015-06-21T10:45:54.000Z</time>
      </trkpt>
      <trkpt lat="45.12689" lon="5.52321">
        <ele>1010.6</ele>
        <time>2015-06-21T10:45:55.000Z</time>
      </trkpt>
      <trkpt lat="45.12688" lon="5.52321">
        <ele>1010.9</ele>
        <time>2015-06-21T10:45:56.000Z</time>
      </trkpt>
      <trkpt lat="45.12686" lon="5.52321">
        <ele>1011.2</ele>
        <time>2015-06-21T10:45:57.000Z</time>
      </trkpt>
      <trkpt lat="45.12685" lon="5.52322">
        <ele>1011.3</ele>
        <time>2015-06-21T10:45:58.000Z</time>
      </trkpt>
      <trkpt lat="45.12681" lon="5.52325">
        <ele>1011.9</ele>
        <time>2015-06-21T10:46:00.000Z</time>
      </trkpt>
      <trkpt lat="45.12671" lon="5.52333">
        <ele>1013</ele>
        <time>2015-06-21T10:46:06.000Z</time>
      </trkpt>
      <trkpt lat="45.12663" lon="5.52337">
        <ele>1014.1</ele>
        <time>2015-06-21T10:46:10.000Z</time>
      </trkpt>
      <trkpt lat="45.12661" lon="5.52338">
        <ele>1014.3</ele>
        <time>2015-06-21T10:46:11.000Z</time>
      </trkpt>
      <trkpt lat="45.12659" lon="5.5234">
        <ele>1014.5</ele>
        <time>2015-06-21T10:46:12.000Z</time>
      </trkpt>
      <trkpt lat="45.12658" lon="5.52341">
        <ele>1014.6</ele>
        <time>2015-06-21T10:46:13.000Z</time>
      </trkpt>
      <trkpt lat="45.12645" lon="5.52348">
        <ele>1015.7</ele>
        <time>2015-06-21T10:46:19.000Z</time>
      </trkpt>
      <trkpt lat="45.12634" lon="5.52356">
        <ele>1016.4</ele>
        <time>2015-06-21T10:46:24.000Z</time>
      </trkpt>
      <trkpt lat="45.12631" lon="5.52358">
        <ele>1016.3</ele>
        <time>2015-06-21T10:46:25.000Z</time>
      </trkpt>
      <trkpt lat="45.12629" lon="5.5236">
        <ele>1016.3</ele>
        <time>2015-06-21T10:46:26.000Z</time>
      </trkpt>
      <trkpt lat="45.12627" lon="5.52361">
        <ele>1016.3</ele>
        <time>2015-06-21T10:46:27.000Z</time>
      </trkpt>
      <trkpt lat="45.12624" lon="5.52362">
        <ele>1016.4</ele>
        <time>2015-06-21T10:46:28.000Z</time>
      </trkpt>
      <trkpt lat="45.12618" lon="5.52366">
        <ele>1016.5</ele>
        <time>2015-06-21T10:46:31.000Z</time>
      </trkpt>
      <trkpt lat="45.12604" lon="5.52375">
        <ele>1016.4</ele>
        <time>2015-06-21T10:46:38.000Z</time>
      </trkpt>
      <trkpt lat="45.12602" lon="5.52377">
        <ele>1016.2</ele>
        <time>2015-06-21T10:46:39.000Z</time>
      </trkpt>
      <trkpt lat="45.126" lon="5.52379">
        <ele>1016</ele>
        <time>2015-06-21T10:46:40.000Z</time>
      </trkpt>
      <trkpt lat="45.12598" lon="5.5238">
        <ele>1015.9</ele>
        <time>2015-06-21T10:46:41.000Z</time>
      </trkpt>
      <trkpt lat="45.12596" lon="5.52381">
        <ele>1015.9</ele>
        <time>2015-06-21T10:46:42.000Z</time>
      </trkpt>
      <trkpt lat="45.12594" lon="5.52382">
        <ele>1015.8</ele>
        <time>2015-06-21T10:46:43.000Z</time>
      </trkpt>
      <trkpt lat="45.12592" lon="5.52383">
        <ele>1015.7</ele>
        <time>2015-06-21T10:46:44.000Z</time>
      </trkpt>
      <trkpt lat="45.12573" lon="5.52389">
        <ele>1014.6</ele>
        <time>2015-06-21T10:46:52.000Z</time>
      </trkpt>
      <trkpt lat="45.12571" lon="5.52388">
        <ele>1014.7</ele>
        <time>2015-06-21T10:46:53.000Z</time>
      </trkpt>
      <trkpt lat="45.1257" lon="5.52387">
        <ele>1014.9</ele>
        <time>2015-06-21T10:46:54.000Z</time>
      </trkpt>
      <trkpt lat="45.12569" lon="5.52385">
        <ele>1015.2</ele>
        <time>2015-06-21T10:46:55.000Z</time>
      </trkpt>
      <trkpt lat="45.12568" lon="5.52383">
        <ele>1015.5</ele>
        <time>2015-06-21T10:46:56.000Z</time>
      </trkpt>
      <trkpt lat="45.12565" lon="5.52371">
        <ele>1017.6</ele>
        <time>2015-06-21T10:47:01.000Z</time>
      </trkpt>
      <trkpt lat="45.12564" lon="5.52365">
        <ele>1018.7</ele>
        <time>2015-06-21T10:47:03.000Z</time>
      </trkpt>
      <trkpt lat="45.12565" lon="5.52359">
        <ele>1019.6</ele>
        <time>2015-06-21T10:47:05.000Z</time>
      </trkpt>
      <trkpt lat="45.12565" lon="5.52357">
        <ele>1020.1</ele>
        <time>2015-06-21T10:47:06.000Z</time>
      </trkpt>
      <trkpt lat="45.12566" lon="5.52354">
        <ele>1020.5</ele>
        <time>2015-06-21T10:47:07.000Z</time>
      </trkpt>
      <trkpt lat="45.12568" lon="5.52352">
        <ele>1020.9</ele>
        <time>2015-06-21T10:47:08.000Z</time>
      </trkpt>
      <trkpt lat="45.12568" lon="5.52349">
        <ele>1021.4</ele>
        <time>2015-06-21T10:47:09.000Z</time>
      </trkpt>
      <trkpt lat="45.12569" lon="5.52347">
        <ele>1021.8</ele>
        <time>2015-06-21T10:47:10.000Z</time>
      </trkpt>
      <trkpt lat="45.1257" lon="5.52344">
        <ele>1022.3</ele>
        <time>2015-06-21T10:47:11.000Z</time>
      </trkpt>
      <trkpt lat="45.12574" lon="5.52337">
        <ele>1023.4</ele>
        <time>2015-06-21T10:47:14.000Z</time>
      </trkpt>
      <trkpt lat="45.12578" lon="5.52329">
        <ele>1024.7</ele>
        <time>2015-06-21T10:47:18.000Z</time>
      </trkpt>
      <trkpt lat="45.12579" lon="5.52327">
        <ele>1025</ele>
        <time>2015-06-21T10:47:19.000Z</time>
      </trkpt>
      <trkpt lat="45.12581" lon="5.52325">
        <ele>1025.3</ele>
        <time>2015-06-21T10:47:20.000Z</time>
      </trkpt>
      <trkpt lat="45.12582" lon="5.52322">
        <ele>1025.7</ele>
        <time>2015-06-21T10:47:21.000Z</time>
      </trkpt>
      <trkpt lat="45.12583" lon="5.52319">
        <ele>1026</ele>
        <time>2015-06-21T10:47:22.000Z</time>
      </trkpt>
      <trkpt lat="45.12591" lon="5.52306">
        <ele>1027.2</ele>
        <time>2015-06-21T10:47:28.000Z</time>
      </trkpt>
      <trkpt lat="45.12595" lon="5.52297">
        <ele>1028.1</ele>
        <time>2015-06-21T10:47:32.000Z</time>
      </trkpt>
      <trkpt lat="45.12597" lon="5.52295">
        <ele>1028.3</ele>
        <time>2015-06-21T10:47:33.000Z</time>
      </trkpt>
      <trkpt lat="45.12598" lon="5.52293">
        <ele>1028.5</ele>
        <time>2015-06-21T10:47:34.000Z</time>
      </trkpt>
      <trkpt lat="45.126" lon="5.5229">
        <ele>1028.6</ele>
        <time>2015-06-21T10:47:35.000Z</time>
      </trkpt>
      <trkpt lat="45.12602" lon="5.52288">
        <ele>1028.7</ele>
        <time>2015-06-21T10:47:36.000Z</time>
      </trkpt>
      <trkpt lat="45.1261" lon="5.5228">
        <ele>1028.9</ele>
        <time>2015-06-21T10:47:41.000Z</time>
      </trkpt>
      <trkpt lat="45.12623" lon="5.52271">
        <ele>1029.6</ele>
        <time>2015-06-21T10:47:49.000Z</time>
      </trkpt>
      <trkpt lat="45.12625" lon="5.52271">
        <ele>1029.6</ele>
        <time>2015-06-21T10:47:50.000Z</time>
      </trkpt>
      <trkpt lat="45.12627" lon="5.5227">
        <ele>1029.5</ele>
        <time>2015-06-21T10:47:51.000Z</time>
      </trkpt>
      <trkpt lat="45.12629" lon="5.52271">
        <ele>1029.2</ele>
        <time>2015-06-21T10:47:52.000Z</time>
      </trkpt>
      <trkpt lat="45.12635" lon="5.52271">
        <ele>1028.6</ele>
        <time>2015-06-21T10:47:55.000Z</time>
      </trkpt>
      <trkpt lat="45.12641" lon="5.52269">
        <ele>1028.2</ele>
        <time>2015-06-21T10:48:01.000Z</time>
      </trkpt>
      <trkpt lat="45.12642" lon="5.52268">
        <ele>1028.2</ele>
        <time>2015-06-21T10:48:02.000Z</time>
      </trkpt>
      <trkpt lat="45.12645" lon="5.52264">
        <ele>1028.4</ele>
        <time>2015-06-21T10:48:08.000Z</time>
      </trkpt>
      <trkpt lat="45.12647" lon="5.52261">
        <ele>1028.4</ele>
        <time>2015-06-21T10:48:14.000Z</time>
      </trkpt>
      <trkpt lat="45.12647" lon="5.52261">
        <ele>1028.4</ele>
        <time>2015-06-21T10:48:23.000Z</time>
      </trkpt>
      <trkpt lat="45.12647" lon="5.52259">
        <ele>1028.6</ele>
        <time>2015-06-21T10:48:31.000Z</time>
      </trkpt>
      <trkpt lat="45.12646" lon="5.52258">
        <ele>1029</ele>
        <time>2015-06-21T10:48:32.000Z</time>
      </trkpt>
      <trkpt lat="45.12644" lon="5.52256">
        <ele>1029.7</ele>
        <time>2015-06-21T10:48:35.000Z</time>
      </trkpt>
      <trkpt lat="45.12644" lon="5.52255">
        <ele>1030.1</ele>
        <time>2015-06-21T10:48:36.000Z</time>
      </trkpt>
      <trkpt lat="45.12645" lon="5.52248">
        <ele>1030.9</ele>
        <time>2015-06-21T10:48:39.000Z</time>
      </trkpt>
      <trkpt lat="45.12646" lon="5.52246">
        <ele>1031</ele>
        <time>2015-06-21T10:48:40.000Z</time>
      </trkpt>
      <trkpt lat="45.12647" lon="5.52243">
        <ele>1031</ele>
        <time>2015-06-21T10:48:41.000Z</time>
      </trkpt>
      <trkpt lat="45.12647" lon="5.52241">
        <ele>1031.2</ele>
        <time>2015-06-21T10:48:42.000Z</time>
      </trkpt>
      <trkpt lat="45.12648" lon="5.52238">
        <ele>1031.3</ele>
        <time>2015-06-21T10:48:43.000Z</time>
      </trkpt>
      <trkpt lat="45.12649" lon="5.52233">
        <ele>1031.6</ele>
        <time>2015-06-21T10:48:45.000Z</time>
      </trkpt>
      <trkpt lat="45.1265" lon="5.52229">
        <ele>1031.8</ele>
        <time>2015-06-21T10:48:47.000Z</time>
      </trkpt>
      <trkpt lat="45.1265" lon="5.52229">
        <ele>1031.8</ele>
        <time>2015-06-21T10:48:48.000Z</time>
      </trkpt>
      <trkpt lat="45.1265" lon="5.52228">
        <ele>1032</ele>
        <time>2015-06-21T10:48:49.000Z</time>
      </trkpt>
      <trkpt lat="45.12649" lon="5.52226">
        <ele>1032.3</ele>
        <time>2015-06-21T10:48:50.000Z</time>
      </trkpt>
      <trkpt lat="45.12649" lon="5.52225">
        <ele>1032.6</ele>
        <time>2015-06-21T10:48:51.000Z</time>
      </trkpt>
      <trkpt lat="45.12647" lon="5.52222">
        <ele>1033.3</ele>
        <time>2015-06-21T10:48:55.000Z</time>
      </trkpt>
      <trkpt lat="45.12646" lon="5.52222">
        <ele>1033.5</ele>
        <time>2015-06-21T10:48:56.000Z</time>
      </trkpt>
      <trkpt lat="45.12644" lon="5.52223">
        <ele>1033.8</ele>
        <time>2015-06-21T10:48:57.000Z</time>
      </trkpt>
      <trkpt lat="45.12643" lon="5.52223">
        <ele>1034</ele>
        <time>2015-06-21T10:48:58.000Z</time>
      </trkpt>
      <trkpt lat="45.12642" lon="5.52224">
        <ele>1034.3</ele>
        <time>2015-06-21T10:48:59.000Z</time>
      </trkpt>
      <trkpt lat="45.1264" lon="5.52224">
        <ele>1034.5</ele>
        <time>2015-06-21T10:49:00.000Z</time>
      </trkpt>
      <trkpt lat="45.12636" lon="5.52223">
        <ele>1035.6</ele>
        <time>2015-06-21T10:49:03.000Z</time>
      </trkpt>
      <trkpt lat="45.12634" lon="5.52224">
        <ele>1035.9</ele>
        <time>2015-06-21T10:49:04.000Z</time>
      </trkpt>
      <trkpt lat="45.12633" lon="5.52224">
        <ele>1036.2</ele>
        <time>2015-06-21T10:49:05.000Z</time>
      </trkpt>
      <trkpt lat="45.12632" lon="5.52224">
        <ele>1036.5</ele>
        <time>2015-06-21T10:49:06.000Z</time>
      </trkpt>
      <trkpt lat="45.12628" lon="5.52218">
        <ele>1037.8</ele>
        <time>2015-06-21T10:49:10.000Z</time>
      </trkpt>
      <trkpt lat="45.12627" lon="5.52214">
        <ele>1037.9</ele>
        <time>2015-06-21T10:49:12.000Z</time>
      </trkpt>
      <trkpt lat="45.12627" lon="5.52214">
        <ele>1037.8</ele>
        <time>2015-06-21T10:49:13.000Z</time>
      </trkpt>
      <trkpt lat="45.12627" lon="5.52214">
        <ele>1037.8</ele>
        <time>2015-06-21T10:49:14.000Z</time>
      </trkpt>
      <trkpt lat="45.12627" lon="5.52214">
        <ele>1037.8</ele>
        <time>2015-06-21T10:49:15.000Z</time>
      </trkpt>
      <trkpt lat="45.12627" lon="5.52214">
        <ele>1037.8</ele>
        <time>2015-06-21T10:49:16.000Z</time>
      </trkpt>
      <trkpt lat="45.12627" lon="5.52214">
        <ele>1037.8</ele>
        <time>2015-06-21T10:49:28.000Z</time>
      </trkpt>
      <trkpt lat="45.12628" lon="5.5221">
        <ele>1037.7</ele>
        <time>2015-06-21T10:49:35.000Z</time>
      </trkpt>
      <trkpt lat="45.12633" lon="5.52208">
        <ele>1036.3</ele>
        <time>2015-06-21T10:49:40.000Z</time>
      </trkpt>
      <trkpt lat="45.12642" lon="5.52209">
        <ele>1034.3</ele>
        <time>2015-06-21T10:49:45.000Z</time>
      </trkpt>
      <trkpt lat="45.12644" lon="5.5221">
        <ele>1034</ele>
        <time>2015-06-21T10:49:46.000Z</time>
      </trkpt>
      <trkpt lat="45.12646" lon="5.5221">
        <ele>1033.6</ele>
        <time>2015-06-21T10:49:47.000Z</time>
      </trkpt>
      <trkpt lat="45.12649" lon="5.52211">
        <ele>1033</ele>
        <time>2015-06-21T10:49:48.000Z</time>
      </trkpt>
      <trkpt lat="45.12651" lon="5.52212">
        <ele>1032.5</ele>
        <time>2015-06-21T10:49:49.000Z</time>
      </trkpt>
      <trkpt lat="45.12654" lon="5.52214">
        <ele>1031.9</ele>
        <time>2015-06-21T10:49:50.000Z</time>
      </trkpt>
      <trkpt lat="45.12657" lon="5.52219">
        <ele>1031.2</ele>
        <time>2015-06-21T10:49:52.000Z</time>
      </trkpt>
      <trkpt lat="45.12658" lon="5.52222">
        <ele>1030.9</ele>
        <time>2015-06-21T10:49:53.000Z</time>
      </trkpt>
      <trkpt lat="45.12658" lon="5.52223">
        <ele>1030.7</ele>
        <time>2015-06-21T10:49:54.000Z</time>
      </trkpt>
      <trkpt lat="45.12658" lon="5.52223">
        <ele>1030.7</ele>
        <time>2015-06-21T10:49:55.000Z</time>
      </trkpt>
      <trkpt lat="45.12658" lon="5.52224">
        <ele>1030.6</ele>
        <time>2015-06-21T10:50:00.000Z</time>
      </trkpt>
      <trkpt lat="45.12658" lon="5.52224">
        <ele>1030.6</ele>
        <time>2015-06-21T10:50:12.000Z</time>
      </trkpt>
      <trkpt lat="45.12657" lon="5.52227">
        <ele>1030.5</ele>
        <time>2015-06-21T10:50:21.000Z</time>
      </trkpt>
      <trkpt lat="45.12657" lon="5.52234">
        <ele>1029.8</ele>
        <time>2015-06-21T10:50:24.000Z</time>
      </trkpt>
      <trkpt lat="45.12659" lon="5.52237">
        <ele>1029.1</ele>
        <time>2015-06-21T10:50:25.000Z</time>
      </trkpt>
      <trkpt lat="45.12661" lon="5.52239">
        <ele>1028.4</ele>
        <time>2015-06-21T10:50:26.000Z</time>
      </trkpt>
      <trkpt lat="45.12664" lon="5.5224">
        <ele>1027.8</ele>
        <time>2015-06-21T10:50:27.000Z</time>
      </trkpt>
      <trkpt lat="45.12667" lon="5.52238">
        <ele>1027.3</ele>
        <time>2015-06-21T10:50:28.000Z</time>
      </trkpt>
      <trkpt lat="45.12669" lon="5.52237">
        <ele>1026.8</ele>
        <time>2015-06-21T10:50:29.000Z</time>
      </trkpt>
      <trkpt lat="45.12672" lon="5.52234">
        <ele>1026.4</ele>
        <time>2015-06-21T10:50:30.000Z</time>
      </trkpt>
      <trkpt lat="45.12674" lon="5.52231">
        <ele>1026.1</ele>
        <time>2015-06-21T10:50:31.000Z</time>
      </trkpt>
      <trkpt lat="45.12677" lon="5.52228">
        <ele>1025.7</ele>
        <time>2015-06-21T10:50:32.000Z</time>
      </trkpt>
      <trkpt lat="45.1268" lon="5.52225">
        <ele>1025.5</ele>
        <time>2015-06-21T10:50:33.000Z</time>
      </trkpt>
      <trkpt lat="45.12681" lon="5.52221">
        <ele>1025.4</ele>
        <time>2015-06-21T10:50:34.000Z</time>
      </trkpt>
      <trkpt lat="45.12683" lon="5.52217">
        <ele>1024.9</ele>
        <time>2015-06-21T10:50:35.000Z</time>
      </trkpt>
      <trkpt lat="45.12685" lon="5.52211">
        <ele>1024.4</ele>
        <time>2015-06-21T10:50:36.000Z</time>
      </trkpt>
      <trkpt lat="45.12687" lon="5.52204">
        <ele>1024.1</ele>
        <time>2015-06-21T10:50:37.000Z</time>
      </trkpt>
      <trkpt lat="45.12687" lon="5.52197">
        <ele>1024.2</ele>
        <time>2015-06-21T10:50:38.000Z</time>
      </trkpt>
      <trkpt lat="45.12682" lon="5.52183">
        <ele>1023.7</ele>
        <time>2015-06-21T10:50:40.000Z</time>
      </trkpt>
      <trkpt lat="45.12679" lon="5.52176">
        <ele>1023.4</ele>
        <time>2015-06-21T10:50:41.000Z</time>
      </trkpt>
      <trkpt lat="45.12676" lon="5.5217">
        <ele>1023.3</ele>
        <time>2015-06-21T10:50:42.000Z</time>
      </trkpt>
      <trkpt lat="45.12672" lon="5.52164">
        <ele>1023.1</ele>
        <time>2015-06-21T10:50:43.000Z</time>
      </trkpt>
      <trkpt lat="45.12668" lon="5.52158">
        <ele>1022.8</ele>
        <time>2015-06-21T10:50:44.000Z</time>
      </trkpt>
      <trkpt lat="45.12665" lon="5.52153">
        <ele>1022.5</ele>
        <time>2015-06-21T10:50:45.000Z</time>
      </trkpt>
      <trkpt lat="45.12662" lon="5.52148">
        <ele>1022.2</ele>
        <time>2015-06-21T10:50:46.000Z</time>
      </trkpt>
      <trkpt lat="45.12659" lon="5.52145">
        <ele>1022.3</ele>
        <time>2015-06-21T10:50:47.000Z</time>
      </trkpt>
      <trkpt lat="45.12657" lon="5.52143">
        <ele>1022.3</ele>
        <time>2015-06-21T10:50:48.000Z</time>
      </trkpt>
      <trkpt lat="45.12654" lon="5.52139">
        <ele>1022.3</ele>
        <time>2015-06-21T10:50:50.000Z</time>
      </trkpt>
      <trkpt lat="45.12652" lon="5.52138">
        <ele>1022.6</ele>
        <time>2015-06-21T10:50:54.000Z</time>
      </trkpt>
      <trkpt lat="45.12651" lon="5.52136">
        <ele>1022.5</ele>
        <time>2015-06-21T10:51:02.000Z</time>
      </trkpt>
      <trkpt lat="45.12649" lon="5.52134">
        <ele>1022.7</ele>
        <time>2015-06-21T10:51:04.000Z</time>
      </trkpt>
      <trkpt lat="45.12645" lon="5.52132">
        <ele>1023.2</ele>
        <time>2015-06-21T10:51:06.000Z</time>
      </trkpt>
      <trkpt lat="45.12636" lon="5.52127">
        <ele>1024.1</ele>
        <time>2015-06-21T10:51:11.000Z</time>
      </trkpt>
      <trkpt lat="45.12623" lon="5.52124">
        <ele>1025.4</ele>
        <time>2015-06-21T10:51:19.000Z</time>
      </trkpt>
      <trkpt lat="45.12623" lon="5.52125">
        <ele>1025.6</ele>
        <time>2015-06-21T10:51:23.000Z</time>
      </trkpt>
      <trkpt lat="45.12621" lon="5.52123">
        <ele>1025.3</ele>
        <time>2015-06-21T10:51:25.000Z</time>
      </trkpt>
      <trkpt lat="45.12621" lon="5.52122">
        <ele>1025.2</ele>
        <time>2015-06-21T10:51:28.000Z</time>
      </trkpt>
      <trkpt lat="45.12618" lon="5.5212">
        <ele>1025.1</ele>
        <time>2015-06-21T10:51:33.000Z</time>
      </trkpt>
      <trkpt lat="45.12616" lon="5.5212">
        <ele>1025.2</ele>
        <time>2015-06-21T10:51:34.000Z</time>
      </trkpt>
      <trkpt lat="45.12612" lon="5.5212">
        <ele>1025.8</ele>
        <time>2015-06-21T10:51:39.000Z</time>
      </trkpt>
      <trkpt lat="45.12608" lon="5.5212">
        <ele>1026.2</ele>
        <time>2015-06-21T10:51:49.000Z</time>
      </trkpt>
      <trkpt lat="45.12597" lon="5.52119">
        <ele>1026.8</ele>
        <time>2015-06-21T10:51:54.000Z</time>
      </trkpt>
      <trkpt lat="45.12591" lon="5.52119">
        <ele>1027.4</ele>
        <time>2015-06-21T10:51:57.000Z</time>
      </trkpt>
      <trkpt lat="45.12589" lon="5.52119">
        <ele>1027.6</ele>
        <time>2015-06-21T10:51:58.000Z</time>
      </trkpt>
      <trkpt lat="45.12586" lon="5.52119">
        <ele>1027.8</ele>
        <time>2015-06-21T10:51:59.000Z</time>
      </trkpt>
      <trkpt lat="45.12584" lon="5.52119">
        <ele>1028</ele>
        <time>2015-06-21T10:52:00.000Z</time>
      </trkpt>
      <trkpt lat="45.12582" lon="5.52119">
        <ele>1028</ele>
        <time>2015-06-21T10:52:01.000Z</time>
      </trkpt>
      <trkpt lat="45.12568" lon="5.52117">
        <ele>1027.8</ele>
        <time>2015-06-21T10:52:08.000Z</time>
      </trkpt>
      <trkpt lat="45.12564" lon="5.52117">
        <ele>1028</ele>
        <time>2015-06-21T10:52:10.000Z</time>
      </trkpt>
      <trkpt lat="45.12562" lon="5.52118">
        <ele>1028.1</ele>
        <time>2015-06-21T10:52:11.000Z</time>
      </trkpt>
      <trkpt lat="45.1256" lon="5.52118">
        <ele>1028.2</ele>
        <time>2015-06-21T10:52:12.000Z</time>
      </trkpt>
      <trkpt lat="45.12558" lon="5.52119">
        <ele>1028.3</ele>
        <time>2015-06-21T10:52:13.000Z</time>
      </trkpt>
      <trkpt lat="45.12557" lon="5.52119">
        <ele>1028.4</ele>
        <time>2015-06-21T10:52:14.000Z</time>
      </trkpt>
      <trkpt lat="45.12555" lon="5.5212">
        <ele>1028.5</ele>
        <time>2015-06-21T10:52:15.000Z</time>
      </trkpt>
      <trkpt lat="45.12545" lon="5.52126">
        <ele>1028.1</ele>
        <time>2015-06-21T10:52:21.000Z</time>
      </trkpt>
      <trkpt lat="45.12532" lon="5.52141">
        <ele>1026.4</ele>
        <time>2015-06-21T10:52:27.000Z</time>
      </trkpt>
      <trkpt lat="45.1253" lon="5.52144">
        <ele>1026.1</ele>
        <time>2015-06-21T10:52:28.000Z</time>
      </trkpt>
      <trkpt lat="45.12527" lon="5.52147">
        <ele>1025.8</ele>
        <time>2015-06-21T10:52:29.000Z</time>
      </trkpt>
      <trkpt lat="45.12525" lon="5.52149">
        <ele>1025.7</ele>
        <time>2015-06-21T10:52:30.000Z</time>
      </trkpt>
      <trkpt lat="45.12524" lon="5.5215">
        <ele>1025.6</ele>
        <time>2015-06-21T10:52:31.000Z</time>
      </trkpt>
      <trkpt lat="45.12522" lon="5.52151">
        <ele>1025.4</ele>
        <time>2015-06-21T10:52:32.000Z</time>
      </trkpt>
      <trkpt lat="45.12521" lon="5.5215">
        <ele>1025.1</ele>
        <time>2015-06-21T10:52:34.000Z</time>
      </trkpt>
      <trkpt lat="45.12519" lon="5.5215">
        <ele>1024.8</ele>
        <time>2015-06-21T10:52:36.000Z</time>
      </trkpt>
      <trkpt lat="45.12519" lon="5.5215">
        <ele>1024.8</ele>
        <time>2015-06-21T10:52:37.000Z</time>
      </trkpt>
      <trkpt lat="45.12519" lon="5.5215">
        <ele>1024.8</ele>
        <time>2015-06-21T10:52:38.000Z</time>
      </trkpt>
      <trkpt lat="45.12519" lon="5.5215">
        <ele>1024.8</ele>
        <time>2015-06-21T10:52:39.000Z</time>
      </trkpt>
      <trkpt lat="45.12519" lon="5.5215">
        <ele>1024.8</ele>
        <time>2015-06-21T10:52:40.000Z</time>
      </trkpt>
      <trkpt lat="45.12519" lon="5.5215">
        <ele>1024.7</ele>
        <time>2015-06-21T10:52:41.000Z</time>
      </trkpt>
      <trkpt lat="45.12519" lon="5.5215">
        <ele>1024.7</ele>
        <time>2015-06-21T10:52:47.000Z</time>
      </trkpt>
      <trkpt lat="45.12518" lon="5.52151">
        <ele>1024.7</ele>
        <time>2015-06-21T10:52:54.000Z</time>
      </trkpt>
      <trkpt lat="45.12518" lon="5.52153">
        <ele>1024.7</ele>
        <time>2015-06-21T10:52:59.000Z</time>
      </trkpt>
      <trkpt lat="45.12518" lon="5.52154">
        <ele>1024.7</ele>
        <time>2015-06-21T10:53:01.000Z</time>
      </trkpt>
      <trkpt lat="45.12517" lon="5.52159">
        <ele>1024.8</ele>
        <time>2015-06-21T10:53:03.000Z</time>
      </trkpt>
      <trkpt lat="45.12512" lon="5.52177">
        <ele>1024.5</ele>
        <time>2015-06-21T10:53:10.000Z</time>
      </trkpt>
      <trkpt lat="45.12508" lon="5.522">
        <ele>1024.5</ele>
        <time>2015-06-21T10:53:17.000Z</time>
      </trkpt>
      <trkpt lat="45.12506" lon="5.52224">
        <ele>1024.6</ele>
        <time>2015-06-21T10:53:24.000Z</time>
      </trkpt>
      <trkpt lat="45.12506" lon="5.52234">
        <ele>1024.9</ele>
        <time>2015-06-21T10:53:28.000Z</time>
      </trkpt>
      <trkpt lat="45.12505" lon="5.52251">
        <ele>1025</ele>
        <time>2015-06-21T10:53:32.000Z</time>
      </trkpt>
      <trkpt lat="45.12504" lon="5.52254">
        <ele>1024.6</ele>
        <time>2015-06-21T10:53:33.000Z</time>
      </trkpt>
      <trkpt lat="45.12504" lon="5.52257">
        <ele>1024.3</ele>
        <time>2015-06-21T10:53:34.000Z</time>
      </trkpt>
      <trkpt lat="45.12503" lon="5.5226">
        <ele>1023.9</ele>
        <time>2015-06-21T10:53:35.000Z</time>
      </trkpt>
      <trkpt lat="45.12503" lon="5.52263">
        <ele>1023.6</ele>
        <time>2015-06-21T10:53:36.000Z</time>
      </trkpt>
      <trkpt lat="45.12501" lon="5.52272">
        <ele>1022.6</ele>
        <time>2015-06-21T10:53:39.000Z</time>
      </trkpt>
      <trkpt lat="45.12502" lon="5.52293">
        <ele>1021.2</ele>
        <time>2015-06-21T10:53:46.000Z</time>
      </trkpt>
      <trkpt lat="45.12501" lon="5.52297">
        <ele>1020.8</ele>
        <time>2015-06-21T10:53:49.000Z</time>
      </trkpt>
      <trkpt lat="45.125" lon="5.52297">
        <ele>1020.6</ele>
        <time>2015-06-21T10:53:50.000Z</time>
      </trkpt>
      <trkpt lat="45.125" lon="5.52298">
        <ele>1020.6</ele>
        <time>2015-06-21T10:53:51.000Z</time>
      </trkpt>
      <trkpt lat="45.125" lon="5.52298">
        <ele>1020.6</ele>
        <time>2015-06-21T10:53:52.000Z</time>
      </trkpt>
      <trkpt lat="45.125" lon="5.52298">
        <ele>1020.6</ele>
        <time>2015-06-21T10:53:53.000Z</time>
      </trkpt>
      <trkpt lat="45.125" lon="5.52298">
        <ele>1020.6</ele>
        <time>2015-06-21T10:54:01.000Z</time>
      </trkpt>
      <trkpt lat="45.12499" lon="5.52298">
        <ele>1020.5</ele>
        <time>2015-06-21T10:54:06.000Z</time>
      </trkpt>
      <trkpt lat="45.12496" lon="5.52296">
        <ele>1020.6</ele>
        <time>2015-06-21T10:54:08.000Z</time>
      </trkpt>
      <trkpt lat="45.12494" lon="5.52293">
        <ele>1020.8</ele>
        <time>2015-06-21T10:54:11.000Z</time>
      </trkpt>
      <trkpt lat="45.12493" lon="5.52292">
        <ele>1020.8</ele>
        <time>2015-06-21T10:54:12.000Z</time>
      </trkpt>
      <trkpt lat="45.12485" lon="5.52283">
        <ele>1021.2</ele>
        <time>2015-06-21T10:54:19.000Z</time>
      </trkpt>
      <trkpt lat="45.12478" lon="5.52277">
        <ele>1021.2</ele>
        <time>2015-06-21T10:54:24.000Z</time>
      </trkpt>
      <trkpt lat="45.12471" lon="5.5227">
        <ele>1021.2</ele>
        <time>2015-06-21T10:54:30.000Z</time>
      </trkpt>
      <trkpt lat="45.1247" lon="5.52268">
        <ele>1021.3</ele>
        <time>2015-06-21T10:54:31.000Z</time>
      </trkpt>
      <trkpt lat="45.12469" lon="5.52267">
        <ele>1021.4</ele>
        <time>2015-06-21T10:54:32.000Z</time>
      </trkpt>
      <trkpt lat="45.12467" lon="5.52266">
        <ele>1021.6</ele>
        <time>2015-06-21T10:54:33.000Z</time>
      </trkpt>
      <trkpt lat="45.12465" lon="5.52265">
        <ele>1021.7</ele>
        <time>2015-06-21T10:54:34.000Z</time>
      </trkpt>
      <trkpt lat="45.12464" lon="5.52263">
        <ele>1021.9</ele>
        <time>2015-06-21T10:54:35.000Z</time>
      </trkpt>
      <trkpt lat="45.12463" lon="5.52263">
        <ele>1022</ele>
        <time>2015-06-21T10:54:36.000Z</time>
      </trkpt>
      <trkpt lat="45.12455" lon="5.52262">
        <ele>1022.8</ele>
        <time>2015-06-21T10:54:42.000Z</time>
      </trkpt>
      <trkpt lat="45.12455" lon="5.52255">
        <ele>1022.9</ele>
        <time>2015-06-21T10:54:46.000Z</time>
      </trkpt>
      <trkpt lat="45.12455" lon="5.52253">
        <ele>1022.9</ele>
        <time>2015-06-21T10:54:47.000Z</time>
      </trkpt>
      <trkpt lat="45.12455" lon="5.52248">
        <ele>1022.9</ele>
        <time>2015-06-21T10:54:50.000Z</time>
      </trkpt>
      <trkpt lat="45.12455" lon="5.52247">
        <ele>1023</ele>
        <time>2015-06-21T10:54:51.000Z</time>
      </trkpt>
      <trkpt lat="45.12455" lon="5.52248">
        <ele>1023</ele>
        <time>2015-06-21T10:54:52.000Z</time>
      </trkpt>
      <trkpt lat="45.12455" lon="5.52248">
        <ele>1023</ele>
        <time>2015-06-21T10:54:53.000Z</time>
      </trkpt>
      <trkpt lat="45.12455" lon="5.52248">
        <ele>1023</ele>
        <time>2015-06-21T10:54:54.000Z</time>
      </trkpt>
      <trkpt lat="45.12455" lon="5.52248">
        <ele>1022.9</ele>
        <time>2015-06-21T10:54:59.000Z</time>
      </trkpt>
      <trkpt lat="45.12455" lon="5.52248">
        <ele>1022.9</ele>
        <time>2015-06-21T10:55:05.000Z</time>
      </trkpt>
      <trkpt lat="45.12455" lon="5.52247">
        <ele>1022.9</ele>
        <time>2015-06-21T10:55:10.000Z</time>
      </trkpt>
      <trkpt lat="45.12455" lon="5.52246">
        <ele>1022.9</ele>
        <time>2015-06-21T10:55:17.000Z</time>
      </trkpt>
      <trkpt lat="45.12455" lon="5.52246">
        <ele>1022.9</ele>
        <time>2015-06-21T10:55:36.000Z</time>
      </trkpt>
      <trkpt lat="45.12455" lon="5.52244">
        <ele>1023</ele>
        <time>2015-06-21T10:55:46.000Z</time>
      </trkpt>
      <trkpt lat="45.12456" lon="5.5224">
        <ele>1023.1</ele>
        <time>2015-06-21T10:55:52.000Z</time>
      </trkpt>
      <trkpt lat="45.12455" lon="5.5223">
        <ele>1023.6</ele>
        <time>2015-06-21T10:55:59.000Z</time>
      </trkpt>
      <trkpt lat="45.12455" lon="5.52228">
        <ele>1023.6</ele>
        <time>2015-06-21T10:56:00.000Z</time>
      </trkpt>
      <trkpt lat="45.12454" lon="5.52227">
        <ele>1023.7</ele>
        <time>2015-06-21T10:56:01.000Z</time>
      </trkpt>
      <trkpt lat="45.12455" lon="5.52226">
        <ele>1023.8</ele>
        <time>2015-06-21T10:56:02.000Z</time>
      </trkpt>
      <trkpt lat="45.12454" lon="5.52225">
        <ele>1023.8</ele>
        <time>2015-06-21T10:56:03.000Z</time>
      </trkpt>
      <trkpt lat="45.12454" lon="5.52219">
        <ele>1024.1</ele>
        <time>2015-06-21T10:56:09.000Z</time>
      </trkpt>
      <trkpt lat="45.12454" lon="5.52217">
        <ele>1024.3</ele>
        <time>2015-06-21T10:56:18.000Z</time>
      </trkpt>
      <trkpt lat="45.12455" lon="5.52213">
        <ele>1024.4</ele>
        <time>2015-06-21T10:56:25.000Z</time>
      </trkpt>
      <trkpt lat="45.12457" lon="5.52209">
        <ele>1024.3</ele>
        <time>2015-06-21T10:56:28.000Z</time>
      </trkpt>
      <trkpt lat="45.12461" lon="5.52201">
        <ele>1024.3</ele>
        <time>2015-06-21T10:56:30.000Z</time>
      </trkpt>
      <trkpt lat="45.12467" lon="5.52182">
        <ele>1024.3</ele>
        <time>2015-06-21T10:56:34.000Z</time>
      </trkpt>
      <trkpt lat="45.12471" lon="5.52173">
        <ele>1024.1</ele>
        <time>2015-06-21T10:56:38.000Z</time>
      </trkpt>
      <trkpt lat="45.12472" lon="5.52167">
        <ele>1024</ele>
        <time>2015-06-21T10:56:41.000Z</time>
      </trkpt>
      <trkpt lat="45.12473" lon="5.52162">
        <ele>1024.3</ele>
        <time>2015-06-21T10:56:43.000Z</time>
      </trkpt>
      <trkpt lat="45.12474" lon="5.5216">
        <ele>1024.3</ele>
        <time>2015-06-21T10:56:44.000Z</time>
      </trkpt>
      <trkpt lat="45.12474" lon="5.52154">
        <ele>1024.6</ele>
        <time>2015-06-21T10:56:47.000Z</time>
      </trkpt>
      <trkpt lat="45.12477" lon="5.5215">
        <ele>1024.6</ele>
        <time>2015-06-21T10:56:50.000Z</time>
      </trkpt>
      <trkpt lat="45.12478" lon="5.52148">
        <ele>1024.6</ele>
        <time>2015-06-21T10:56:51.000Z</time>
      </trkpt>
      <trkpt lat="45.12481" lon="5.52138">
        <ele>1025</ele>
        <time>2015-06-21T10:56:57.000Z</time>
      </trkpt>
      <trkpt lat="45.12482" lon="5.52131">
        <ele>1026</ele>
        <time>2015-06-21T10:57:01.000Z</time>
      </trkpt>
      <trkpt lat="45.12482" lon="5.52129">
        <ele>1026.3</ele>
        <time>2015-06-21T10:57:02.000Z</time>
      </trkpt>
      <trkpt lat="45.12481" lon="5.52129">
        <ele>1026.4</ele>
        <time>2015-06-21T10:57:03.000Z</time>
      </trkpt>
      <trkpt lat="45.1248" lon="5.52129">
        <ele>1026.7</ele>
        <time>2015-06-21T10:57:04.000Z</time>
      </trkpt>
      <trkpt lat="45.1248" lon="5.52129">
        <ele>1026.7</ele>
        <time>2015-06-21T10:57:05.000Z</time>
      </trkpt>
      <trkpt lat="45.12482" lon="5.52127">
        <ele>1026.8</ele>
        <time>2015-06-21T10:57:13.000Z</time>
      </trkpt>
      <trkpt lat="45.12486" lon="5.52117">
        <ele>1027.5</ele>
        <time>2015-06-21T10:57:20.000Z</time>
      </trkpt>
      <trkpt lat="45.12487" lon="5.52115">
        <ele>1027.7</ele>
        <time>2015-06-21T10:57:30.000Z</time>
      </trkpt>
      <trkpt lat="45.1249" lon="5.5211">
        <ele>1027.7</ele>
        <time>2015-06-21T10:57:36.000Z</time>
      </trkpt>
      <trkpt lat="45.12491" lon="5.52107">
        <ele>1028.1</ele>
        <time>2015-06-21T10:57:38.000Z</time>
      </trkpt>
      <trkpt lat="45.1249" lon="5.52098">
        <ele>1030.1</ele>
        <time>2015-06-21T10:57:42.000Z</time>
      </trkpt>
      <trkpt lat="45.12489" lon="5.52095">
        <ele>1030.7</ele>
        <time>2015-06-21T10:57:43.000Z</time>
      </trkpt>
      <trkpt lat="45.12489" lon="5.52093">
        <ele>1031.1</ele>
        <time>2015-06-21T10:57:44.000Z</time>
      </trkpt>
      <trkpt lat="45.12489" lon="5.52091">
        <ele>1031.4</ele>
        <time>2015-06-21T10:57:45.000Z</time>
      </trkpt>
      <trkpt lat="45.12489" lon="5.5209">
        <ele>1031.6</ele>
        <time>2015-06-21T10:57:46.000Z</time>
      </trkpt>
      <trkpt lat="45.1249" lon="5.52085">
        <ele>1032.4</ele>
        <time>2015-06-21T10:57:49.000Z</time>
      </trkpt>
      <trkpt lat="45.12489" lon="5.52083">
        <ele>1032.7</ele>
        <time>2015-06-21T10:57:50.000Z</time>
      </trkpt>
      <trkpt lat="45.12489" lon="5.52081">
        <ele>1033</ele>
        <time>2015-06-21T10:57:51.000Z</time>
      </trkpt>
      <trkpt lat="45.1249" lon="5.5208">
        <ele>1033.1</ele>
        <time>2015-06-21T10:57:52.000Z</time>
      </trkpt>
      <trkpt lat="45.1249" lon="5.52078">
        <ele>1033.4</ele>
        <time>2015-06-21T10:57:53.000Z</time>
      </trkpt>
      <trkpt lat="45.1249" lon="5.52078">
        <ele>1033.5</ele>
        <time>2015-06-21T10:57:54.000Z</time>
      </trkpt>
      <trkpt lat="45.1249" lon="5.52078">
        <ele>1033.5</ele>
        <time>2015-06-21T10:57:55.000Z</time>
      </trkpt>
      <trkpt lat="45.1249" lon="5.52078">
        <ele>1033.5</ele>
        <time>2015-06-21T10:57:59.000Z</time>
      </trkpt>
      <trkpt lat="45.1249" lon="5.52077">
        <ele>1033.6</ele>
        <time>2015-06-21T10:58:00.000Z</time>
      </trkpt>
      <trkpt lat="45.1249" lon="5.52077">
        <ele>1033.6</ele>
        <time>2015-06-21T10:58:01.000Z</time>
      </trkpt>
      <trkpt lat="45.1249" lon="5.52077">
        <ele>1033.6</ele>
        <time>2015-06-21T10:58:02.000Z</time>
      </trkpt>
      <trkpt lat="45.1249" lon="5.52077">
        <ele>1033.5</ele>
        <time>2015-06-21T10:58:03.000Z</time>
      </trkpt>
      <trkpt lat="45.12492" lon="5.52076">
        <ele>1033.3</ele>
        <time>2015-06-21T10:58:06.000Z</time>
      </trkpt>
      <trkpt lat="45.12492" lon="5.52076">
        <ele>1033.1</ele>
        <time>2015-06-21T10:58:08.000Z</time>
      </trkpt>
      <trkpt lat="45.12492" lon="5.52074">
        <ele>1033.3</ele>
        <time>2015-06-21T10:58:11.000Z</time>
      </trkpt>
      <trkpt lat="45.12492" lon="5.52073">
        <ele>1033.5</ele>
        <time>2015-06-21T10:58:19.000Z</time>
      </trkpt>
      <trkpt lat="45.12492" lon="5.52073">
        <ele>1033.5</ele>
        <time>2015-06-21T10:58:34.000Z</time>
      </trkpt>
      <trkpt lat="45.12492" lon="5.52073">
        <ele>1033.5</ele>
        <time>2015-06-21T10:58:40.000Z</time>
      </trkpt>
      <trkpt lat="45.12492" lon="5.52073">
        <ele>1033.5</ele>
        <time>2015-06-21T10:58:49.000Z</time>
      </trkpt>
      <trkpt lat="45.12492" lon="5.52073">
        <ele>1033.5</ele>
        <time>2015-06-21T10:59:05.000Z</time>
      </trkpt>
      <trkpt lat="45.12492" lon="5.52073">
        <ele>1033.5</ele>
        <time>2015-06-21T10:59:20.000Z</time>
      </trkpt>
      <trkpt lat="45.12492" lon="5.52073">
        <ele>1033.4</ele>
        <time>2015-06-21T10:59:25.000Z</time>
      </trkpt>
      <trkpt lat="45.12492" lon="5.52073">
        <ele>1033.4</ele>
        <time>2015-06-21T10:59:35.000Z</time>
      </trkpt>
      <trkpt lat="45.12492" lon="5.52073">
        <ele>1033.4</ele>
        <time>2015-06-21T10:59:38.000Z</time>
      </trkpt>
      <trkpt lat="45.12495" lon="5.52074">
        <ele>1032.8</ele>
        <time>2015-06-21T10:59:40.000Z</time>
      </trkpt>
      <trkpt lat="45.12499" lon="5.52075">
        <ele>1031.5</ele>
        <time>2015-06-21T10:59:42.000Z</time>
      </trkpt>
      <trkpt lat="45.12514" lon="5.52076">
        <ele>1029.4</ele>
        <time>2015-06-21T10:59:47.000Z</time>
      </trkpt>
      <trkpt lat="45.12517" lon="5.52075">
        <ele>1029</ele>
        <time>2015-06-21T10:59:48.000Z</time>
      </trkpt>
      <trkpt lat="45.1252" lon="5.52076">
        <ele>1028.6</ele>
        <time>2015-06-21T10:59:49.000Z</time>
      </trkpt>
      <trkpt lat="45.12523" lon="5.52075">
        <ele>1028.1</ele>
        <time>2015-06-21T10:59:50.000Z</time>
      </trkpt>
      <trkpt lat="45.12527" lon="5.52076">
        <ele>1027.7</ele>
        <time>2015-06-21T10:59:51.000Z</time>
      </trkpt>
      <trkpt lat="45.1253" lon="5.52075">
        <ele>1027.5</ele>
        <time>2015-06-21T10:59:52.000Z</time>
      </trkpt>
      <trkpt lat="45.12533" lon="5.52075">
        <ele>1027.4</ele>
        <time>2015-06-21T10:59:53.000Z</time>
      </trkpt>
      <trkpt lat="45.12536" lon="5.52075">
        <ele>1027.3</ele>
        <time>2015-06-21T10:59:54.000Z</time>
      </trkpt>
      <trkpt lat="45.12538" lon="5.52074">
        <ele>1027.2</ele>
        <time>2015-06-21T10:59:55.000Z</time>
      </trkpt>
      <trkpt lat="45.12542" lon="5.52074">
        <ele>1027</ele>
        <time>2015-06-21T10:59:58.000Z</time>
      </trkpt>
      <trkpt lat="45.12543" lon="5.52074">
        <ele>1026.9</ele>
        <time>2015-06-21T11:00:04.000Z</time>
      </trkpt>
      <trkpt lat="45.12545" lon="5.52074">
        <ele>1026.8</ele>
        <time>2015-06-21T11:00:15.000Z</time>
      </trkpt>
      <trkpt lat="45.12547" lon="5.52075">
        <ele>1026.8</ele>
        <time>2015-06-21T11:00:16.000Z</time>
      </trkpt>
      <trkpt lat="45.12556" lon="5.52075">
        <ele>1026.3</ele>
        <time>2015-06-21T11:00:21.000Z</time>
      </trkpt>
      <trkpt lat="45.12561" lon="5.52075">
        <ele>1025.9</ele>
        <time>2015-06-21T11:00:23.000Z</time>
      </trkpt>
      <trkpt lat="45.12568" lon="5.52076">
        <ele>1025.3</ele>
        <time>2015-06-21T11:00:26.000Z</time>
      </trkpt>
      <trkpt lat="45.1257" lon="5.52075">
        <ele>1025.1</ele>
        <time>2015-06-21T11:00:27.000Z</time>
      </trkpt>
      <trkpt lat="45.12572" lon="5.52075">
        <ele>1024.9</ele>
        <time>2015-06-21T11:00:28.000Z</time>
      </trkpt>
      <trkpt lat="45.12573" lon="5.52075">
        <ele>1024.7</ele>
        <time>2015-06-21T11:00:29.000Z</time>
      </trkpt>
      <trkpt lat="45.12574" lon="5.52075">
        <ele>1024.6</ele>
        <time>2015-06-21T11:00:30.000Z</time>
      </trkpt>
      <trkpt lat="45.12576" lon="5.52075">
        <ele>1024.5</ele>
        <time>2015-06-21T11:00:31.000Z</time>
      </trkpt>
      <trkpt lat="45.12577" lon="5.52075">
        <ele>1024.4</ele>
        <time>2015-06-21T11:00:32.000Z</time>
      </trkpt>
      <trkpt lat="45.12585" lon="5.52075">
        <ele>1023.7</ele>
        <time>2015-06-21T11:00:39.000Z</time>
      </trkpt>
      <trkpt lat="45.12584" lon="5.52076">
        <ele>1023.8</ele>
        <time>2015-06-21T11:00:42.000Z</time>
      </trkpt>
      <trkpt lat="45.12584" lon="5.52076">
        <ele>1023.8</ele>
        <time>2015-06-21T11:00:43.000Z</time>
      </trkpt>
      <trkpt lat="45.12584" lon="5.52076">
        <ele>1023.8</ele>
        <time>2015-06-21T11:00:44.000Z</time>
      </trkpt>
      <trkpt lat="45.12584" lon="5.52076">
        <ele>1023.8</ele>
        <time>2015-06-21T11:00:45.000Z</time>
      </trkpt>
      <trkpt lat="45.12584" lon="5.52076">
        <ele>1023.8</ele>
        <time>2015-06-21T11:00:46.000Z</time>
      </trkpt>
      <trkpt lat="45.12584" lon="5.52076">
        <ele>1023.8</ele>
        <time>2015-06-21T11:00:59.000Z</time>
      </trkpt>
      <trkpt lat="45.12584" lon="5.52076">
        <ele>1023.8</ele>
        <time>2015-06-21T11:01:14.000Z</time>
      </trkpt>
      <trkpt lat="45.12587" lon="5.52075">
        <ele>1023.4</ele>
        <time>2015-06-21T11:01:23.000Z</time>
      </trkpt>
      <trkpt lat="45.12587" lon="5.52076">
        <ele>1023.4</ele>
        <time>2015-06-21T11:01:28.000Z</time>
      </trkpt>
      <trkpt lat="45.12587" lon="5.52078">
        <ele>1023.8</ele>
        <time>2015-06-21T11:01:32.000Z</time>
      </trkpt>
      <trkpt lat="45.1259" lon="5.52079">
        <ele>1023.6</ele>
        <time>2015-06-21T11:01:35.000Z</time>
      </trkpt>
      <trkpt lat="45.12593" lon="5.52081">
        <ele>1023.5</ele>
        <time>2015-06-21T11:01:37.000Z</time>
      </trkpt>
      <trkpt lat="45.12606" lon="5.52084">
        <ele>1022.6</ele>
        <time>2015-06-21T11:01:43.000Z</time>
      </trkpt>
      <trkpt lat="45.12615" lon="5.52088">
        <ele>1021.8</ele>
        <time>2015-06-21T11:01:49.000Z</time>
      </trkpt>
      <trkpt lat="45.12617" lon="5.52088">
        <ele>1021.6</ele>
        <time>2015-06-21T11:01:50.000Z</time>
      </trkpt>
      <trkpt lat="45.12619" lon="5.52089">
        <ele>1021.4</ele>
        <time>2015-06-21T11:01:51.000Z</time>
      </trkpt>
      <trkpt lat="45.12621" lon="5.5209">
        <ele>1021.1</ele>
        <time>2015-06-21T11:01:52.000Z</time>
      </trkpt>
      <trkpt lat="45.12624" lon="5.52091">
        <ele>1020.8</ele>
        <time>2015-06-21T11:01:53.000Z</time>
      </trkpt>
      <trkpt lat="45.1263" lon="5.52093">
        <ele>1020.2</ele>
        <time>2015-06-21T11:01:56.000Z</time>
      </trkpt>
      <trkpt lat="45.12637" lon="5.52095">
        <ele>1019.5</ele>
        <time>2015-06-21T11:01:59.000Z</time>
      </trkpt>
      <trkpt lat="45.12639" lon="5.52096">
        <ele>1019.3</ele>
        <time>2015-06-21T11:02:00.000Z</time>
      </trkpt>
      <trkpt lat="45.12641" lon="5.52096">
        <ele>1019.1</ele>
        <time>2015-06-21T11:02:01.000Z</time>
      </trkpt>
      <trkpt lat="45.12642" lon="5.52096">
        <ele>1018.8</ele>
        <time>2015-06-21T11:02:02.000Z</time>
      </trkpt>
      <trkpt lat="45.12644" lon="5.52097">
        <ele>1018.5</ele>
        <time>2015-06-21T11:02:03.000Z</time>
      </trkpt>
      <trkpt lat="45.1265" lon="5.52098">
        <ele>1017.5</ele>
        <time>2015-06-21T11:02:08.000Z</time>
      </trkpt>
      <trkpt lat="45.12651" lon="5.52095">
        <ele>1017.1</ele>
        <time>2015-06-21T11:02:09.000Z</time>
      </trkpt>
      <trkpt lat="45.12651" lon="5.52092">
        <ele>1016.8</ele>
        <time>2015-06-21T11:02:10.000Z</time>
      </trkpt>
      <trkpt lat="45.12649" lon="5.52089">
        <ele>1016.7</ele>
        <time>2015-06-21T11:02:11.000Z</time>
      </trkpt>
      <trkpt lat="45.12648" lon="5.52086">
        <ele>1016.6</ele>
        <time>2015-06-21T11:02:12.000Z</time>
      </trkpt>
      <trkpt lat="45.12646" lon="5.52083">
        <ele>1016.6</ele>
        <time>2015-06-21T11:02:13.000Z</time>
      </trkpt>
      <trkpt lat="45.12645" lon="5.52081">
        <ele>1016.6</ele>
        <time>2015-06-21T11:02:14.000Z</time>
      </trkpt>
      <trkpt lat="45.12639" lon="5.52073">
        <ele>1016.5</ele>
        <time>2015-06-21T11:02:18.000Z</time>
      </trkpt>
      <trkpt lat="45.12627" lon="5.52062">
        <ele>1016.3</ele>
        <time>2015-06-21T11:02:25.000Z</time>
      </trkpt>
      <trkpt lat="45.12615" lon="5.52052">
        <ele>1015.8</ele>
        <time>2015-06-21T11:02:32.000Z</time>
      </trkpt>
      <trkpt lat="45.12616" lon="5.52049">
        <ele>1015.4</ele>
        <time>2015-06-21T11:02:33.000Z</time>
      </trkpt>
      <trkpt lat="45.12621" lon="5.52049">
        <ele>1014.8</ele>
        <time>2015-06-21T11:02:35.000Z</time>
      </trkpt>
      <trkpt lat="45.12624" lon="5.5205">
        <ele>1014.7</ele>
        <time>2015-06-21T11:02:36.000Z</time>
      </trkpt>
      <trkpt lat="45.12626" lon="5.52051">
        <ele>1014.6</ele>
        <time>2015-06-21T11:02:37.000Z</time>
      </trkpt>
      <trkpt lat="45.12629" lon="5.52052">
        <ele>1014.4</ele>
        <time>2015-06-21T11:02:38.000Z</time>
      </trkpt>
      <trkpt lat="45.12632" lon="5.52052">
        <ele>1014.3</ele>
        <time>2015-06-21T11:02:39.000Z</time>
      </trkpt>
      <trkpt lat="45.12638" lon="5.52055">
        <ele>1013.9</ele>
        <time>2015-06-21T11:02:42.000Z</time>
      </trkpt>
      <trkpt lat="45.12656" lon="5.52061">
        <ele>1012.2</ele>
        <time>2015-06-21T11:02:49.000Z</time>
      </trkpt>
      <trkpt lat="45.12659" lon="5.52062">
        <ele>1011.9</ele>
        <time>2015-06-21T11:02:50.000Z</time>
      </trkpt>
      <trkpt lat="45.12662" lon="5.52063">
        <ele>1011.5</ele>
        <time>2015-06-21T11:02:51.000Z</time>
      </trkpt>
      <trkpt lat="45.12665" lon="5.52064">
        <ele>1011.1</ele>
        <time>2015-06-21T11:02:52.000Z</time>
      </trkpt>
      <trkpt lat="45.12668" lon="5.52065">
        <ele>1010.8</ele>
        <time>2015-06-21T11:02:53.000Z</time>
      </trkpt>
      <trkpt lat="45.12674" lon="5.52067">
        <ele>1010.4</ele>
        <time>2015-06-21T11:02:55.000Z</time>
      </trkpt>
      <trkpt lat="45.12677" lon="5.52068">
        <ele>1010.3</ele>
        <time>2015-06-21T11:02:56.000Z</time>
      </trkpt>
      <trkpt lat="45.12678" lon="5.5207">
        <ele>1010.3</ele>
        <time>2015-06-21T11:02:57.000Z</time>
      </trkpt>
      <trkpt lat="45.1268" lon="5.52071">
        <ele>1010.2</ele>
        <time>2015-06-21T11:02:58.000Z</time>
      </trkpt>
      <trkpt lat="45.12682" lon="5.52071">
        <ele>1010.1</ele>
        <time>2015-06-21T11:02:59.000Z</time>
      </trkpt>
      <trkpt lat="45.12684" lon="5.5207">
        <ele>1009.7</ele>
        <time>2015-06-21T11:03:00.000Z</time>
      </trkpt>
      <trkpt lat="45.12684" lon="5.52064">
        <ele>1009.1</ele>
        <time>2015-06-21T11:03:02.000Z</time>
      </trkpt>
      <trkpt lat="45.12678" lon="5.5206">
        <ele>1009.2</ele>
        <time>2015-06-21T11:03:05.000Z</time>
      </trkpt>
      <trkpt lat="45.12676" lon="5.52058">
        <ele>1009.3</ele>
        <time>2015-06-21T11:03:06.000Z</time>
      </trkpt>
      <trkpt lat="45.12663" lon="5.52046">
        <ele>1009.4</ele>
        <time>2015-06-21T11:03:13.000Z</time>
      </trkpt>
      <trkpt lat="45.12662" lon="5.52043">
        <ele>1009.2</ele>
        <time>2015-06-21T11:03:14.000Z</time>
      </trkpt>
      <trkpt lat="45.12662" lon="5.5204">
        <ele>1008.9</ele>
        <time>2015-06-21T11:03:15.000Z</time>
      </trkpt>
      <trkpt lat="45.12663" lon="5.52036">
        <ele>1008.3</ele>
        <time>2015-06-21T11:03:16.000Z</time>
      </trkpt>
      <trkpt lat="45.12665" lon="5.52034">
        <ele>1007.8</ele>
        <time>2015-06-21T11:03:17.000Z</time>
      </trkpt>
      <trkpt lat="45.12667" lon="5.52034">
        <ele>1007.6</ele>
        <time>2015-06-21T11:03:18.000Z</time>
      </trkpt>
      <trkpt lat="45.12671" lon="5.52034">
        <ele>1007.4</ele>
        <time>2015-06-21T11:03:20.000Z</time>
      </trkpt>
      <trkpt lat="45.12672" lon="5.52034">
        <ele>1007.3</ele>
        <time>2015-06-21T11:03:21.000Z</time>
      </trkpt>
      <trkpt lat="45.12672" lon="5.52035">
        <ele>1007.3</ele>
        <time>2015-06-21T11:03:22.000Z</time>
      </trkpt>
      <trkpt lat="45.12673" lon="5.52036">
        <ele>1007.4</ele>
        <time>2015-06-21T11:03:25.000Z</time>
      </trkpt>
      <trkpt lat="45.12673" lon="5.52036">
        <ele>1007.4</ele>
        <time>2015-06-21T11:03:37.000Z</time>
      </trkpt>
      <trkpt lat="45.12674" lon="5.52035">
        <ele>1007.2</ele>
        <time>2015-06-21T11:03:38.000Z</time>
      </trkpt>
      <trkpt lat="45.12673" lon="5.52035">
        <ele>1007.3</ele>
        <time>2015-06-21T11:03:41.000Z</time>
      </trkpt>
      <trkpt lat="45.12673" lon="5.52035">
        <ele>1007.3</ele>
        <time>2015-06-21T11:03:58.000Z</time>
      </trkpt>
      <trkpt lat="45.12673" lon="5.52035">
        <ele>1007.3</ele>
        <time>2015-06-21T11:04:17.000Z</time>
      </trkpt>
      <trkpt lat="45.12673" lon="5.52035">
        <ele>1007.3</ele>
        <time>2015-06-21T11:04:30.000Z</time>
      </trkpt>
      <trkpt lat="45.12673" lon="5.52035">
        <ele>1007.3</ele>
        <time>2015-06-21T11:04:31.000Z</time>
      </trkpt>
      <trkpt lat="45.12673" lon="5.52035">
        <ele>1007.3</ele>
        <time>2015-06-21T11:04:32.000Z</time>
      </trkpt>
      <trkpt lat="45.12673" lon="5.52035">
        <ele>1007.3</ele>
        <time>2015-06-21T11:04:33.000Z</time>
      </trkpt>
      <trkpt lat="45.12673" lon="5.52035">
        <ele>1007.3</ele>
        <time>2015-06-21T11:04:34.000Z</time>
      </trkpt>
      <trkpt lat="45.12673" lon="5.52035">
        <ele>1007.3</ele>
        <time>2015-06-21T11:04:52.000Z</time>
      </trkpt>
      <trkpt lat="45.12672" lon="5.52034">
        <ele>1007.3</ele>
        <time>2015-06-21T11:05:10.000Z</time>
      </trkpt>
      <trkpt lat="45.12672" lon="5.52034">
        <ele>1007.3</ele>
        <time>2015-06-21T11:05:29.000Z</time>
      </trkpt>
      <trkpt lat="45.12671" lon="5.52034">
        <ele>1007.3</ele>
        <time>2015-06-21T11:05:42.000Z</time>
      </trkpt>
      <trkpt lat="45.12671" lon="5.52034">
        <ele>1007.3</ele>
        <time>2015-06-21T11:05:47.000Z</time>
      </trkpt>
      <trkpt lat="45.12671" lon="5.52034">
        <ele>1007.3</ele>
        <time>2015-06-21T11:06:09.000Z</time>
      </trkpt>
      <trkpt lat="45.12671" lon="5.52034">
        <ele>1007.3</ele>
        <time>2015-06-21T11:06:28.000Z</time>
      </trkpt>
      <trkpt lat="45.12671" lon="5.52034">
        <ele>1007.3</ele>
        <time>2015-06-21T11:06:47.000Z</time>
      </trkpt>
      <trkpt lat="45.12672" lon="5.52033">
        <ele>1007.2</ele>
        <time>2015-06-21T11:07:02.000Z</time>
      </trkpt>
      <trkpt lat="45.12672" lon="5.52033">
        <ele>1007.2</ele>
        <time>2015-06-21T11:07:14.000Z</time>
      </trkpt>
      <trkpt lat="45.12675" lon="5.52033">
        <ele>1006.9</ele>
        <time>2015-06-21T11:07:23.000Z</time>
      </trkpt>
      <trkpt lat="45.12688" lon="5.52039">
        <ele>1006.3</ele>
        <time>2015-06-21T11:07:29.000Z</time>
      </trkpt>
      <trkpt lat="45.12699" lon="5.52043">
        <ele>1005.7</ele>
        <time>2015-06-21T11:07:35.000Z</time>
      </trkpt>
      <trkpt lat="45.12699" lon="5.52044">
        <ele>1005.7</ele>
        <time>2015-06-21T11:07:39.000Z</time>
      </trkpt>
      <trkpt lat="45.12699" lon="5.52044">
        <ele>1005.7</ele>
        <time>2015-06-21T11:07:45.000Z</time>
      </trkpt>
    </trkseg>
  </trk>
</gpx>